Sharon, Kansas
Current Conditions -  °F | °C
As of 11:55 PM on Saturday 22 Nov 2014 (Local Time) from KPTT Reporting Station
Broken Clouds Broken Clouds  
Wind Chill: 52°   Ceiling: 1500
Heat Index: 52°   Visibility: 10mi
Dew Point: 50°   Wind: 16mph
Humidity: 94%   Direction: 190°S
Pressure: 29.59"   Gusts: NA
Location:  37.25°N, 98.42°W
Report Text: KPTT 230555Z AUTO 19014KT 10SM BKN015 11/10 A2959 RMK AO2
Loading
Personal Weather Stations






























Interactive Weather Map New forecast layout! Learn more

10-Day Weather Forecast

Advertisements
Track Severe Weather on mobile